Tillamook, OR

12:52 AM PDT on April 30, 2017 (GMT -0700)
MBPTIL | | Change Station

Elev 62 ft 45.46 °N, 123.83 °W | Updated 1 hour ago

Overcast
Overcast
50.0 °F
Feels Like 50.0 °F
N
2.0
Wind Variable Wind from SE
Gusts 5.0 mph

Today
High -- | Low -- °F
--% Chance of Precip.
Yesterday
High -- | Low -- °F
Precip. -- in
Pressure 30.22 in
Visibility 4.0 miles
Clouds Overcast 2000 ft
Dew Point 50 °F
Humidity 99%
Rainfall in
Snow Depth Not available.
6:04 AM 8:21 PM
Waxing Crescent, 20% visible
METAR KTMK 300735Z AUTO 19008KT 4SM BR OVC020 10/08 A3022 RMK AO2
Pressure 30.22 in
Visibility 4.0 miles
Clouds Overcast 2000 ft
Dew Point 50 °F
Humidity 99%
Rainfall in
Snow Depth Not available.
6:04 AM 8:21 PM
Waxing Crescent, 20% visible
METAR KTMK 300735Z AUTO 19008KT 4SM BR OVC020 10/08 A3022 RMK AO2

Get Severe Weather Alerts

Thanks for signing up!

Be on the lookout for a verification email in your inbox.

You'll start receiving the daily forecast at 8 AM.

×

10-Day Weather Forecast

Almanac

Astronomy

Apr. 30, 2017 Rise Set
Actual Time
Civil Twilight
Nautical Twilight
Astronomical Twilight
Moon
Length of Visible Light
Length of Day
Tomorrow will be .
, % of the Moon is Illuminated

Today's Extremes

State Highs State Lows

Community

WunderPhotos

WunderBlog® & News

Nearby

Air Quality

  Air Quality AQ Index Pollutant
Not available.

Snow Depth

Station Depth Elevation

Earthquake Activity

City Distance Mag. Time & Date
Minimum magnitude displayed is 2.5.

Coastal Water Temperatures

Place Temperature

Stations

Nearby Weather Stations

Station Location Temp. Windchill Dew Point Humidity Wind Precip. Elev Updated Type
                   

Watches & Warnings

There are currently no watches in effect.